sensor_id;sensor_type;location;lat;lon;timestamp;pressure;altitude;pressure_sealevel;temperature;humidity
39789;BME280;25478;42.626;23.320;2022-12-11T00:06:52;91053.44;;;9.54;100.00
39789;BME280;25478;42.626;23.320;2022-12-11T00:09:19;91121.41;;;9.52;100.00
39789;BME280;25478;42.626;23.320;2022-12-11T00:11:45;91048.34;;;9.35;100.00
39789;BME280;25478;42.626;23.320;2022-12-11T00:14:12;91085.94;;;9.15;100.00
39789;BME280;25478;42.626;23.320;2022-12-11T00:16:38;91055.38;;;8.92;100.00
39789;BME280;25478;42.626;23.320;2022-12-11T00:19:03;91080.22;;;8.88;100.00
39789;BME280;25478;42.626;23.320;2022-12-11T00:21:29;91073.00;;;8.76;100.00
39789;BME280;25478;42.626;23.320;2022-12-11T00:23:54;91117.69;;;8.72;100.00
39789;BME280;25478;42.626;23.320;2022-12-11T00:26:20;91074.31;;;8.67;100.00
39789;BME280;25478;42.626;23.320;2022-12-11T00:28:46;91082.25;;;8.64;100.00
39789;BME280;25478;42.626;23.320;2022-12-11T00:31:16;91080.88;;;8.59;100.00
39789;BME280;25478;42.626;23.320;2022-12-11T00:33:43;91069.38;;;8.53;100.00
39789;BME280;25478;42.626;23.320;2022-12-11T00:36:14;91087.91;;;8.46;100.00
39789;BME280;25478;42.626;23.320;2022-12-11T00:38:40;91053.22;;;8.38;100.00
39789;BME280;25478;42.626;23.320;2022-12-11T00:41:07;91095.63;;;8.53;100.00
39789;BME280;25478;42.626;23.320;2022-12-11T00:43:33;91056.38;;;8.50;100.00
39789;BME280;25478;42.626;23.320;2022-12-11T00:45:58;91059.28;;;8.35;100.00
39789;BME280;25478;42.626;23.320;2022-12-11T00:48:24;91051.34;;;8.39;100.00
39789;BME280;25478;42.626;23.320;2022-12-11T00:50:49;91080.53;;;8.41;100.00
39789;BME280;25478;42.626;23.320;2022-12-11T00:53:14;91055.44;;;8.40;100.00
39789;BME280;25478;42.626;23.320;2022-12-11T00:55:41;91085.00;;;8.40;100.00
39789;BME280;25478;42.626;23.320;2022-12-11T00:58:08;91057.31;;;8.39;100.00
39789;BME280;25478;42.626;23.320;2022-12-11T01:00:34;91082.06;;;8.38;100.00
39789;BME280;25478;42.626;23.320;2022-12-11T01:02:59;91083.22;;;8.37;100.00
39789;BME280;25478;42.626;23.320;2022-12-11T01:05:25;91079.13;;;8.36;100.00
39789;BME280;25478;42.626;23.320;2022-12-11T01:07:50;91066.66;;;8.40;100.00
39789;BME280;25478;42.626;23.320;2022-12-11T01:10:16;91064.94;;;8.34;100.00
39789;BME280;25478;42.626;23.320;2022-12-11T01:12:51;91067.91;;;8.52;100.00
39789;BME280;25478;42.626;23.320;2022-12-11T01:15:18;91012.53;;;8.50;100.00
39789;BME280;25478;42.626;23.320;2022-12-11T01:17:44;91012.75;;;8.72;100.00
39789;BME280;25478;42.626;23.320;2022-12-11T01:20:10;91060.03;;;9.17;100.00
39789;BME280;25478;42.626;23.320;2022-12-11T01:22:35;91056.13;;;9.67;100.00
39789;BME280;25478;42.626;23.320;2022-12-11T01:25:01;91102.53;;;9.99;100.00
39789;BME280;25478;42.626;23.320;2022-12-11T01:27:27;91090.78;;;10.16;100.00
39789;BME280;25478;42.626;23.320;2022-12-11T01:29:52;91054.56;;;10.37;100.00
39789;BME280;25478;42.626;23.320;2022-12-11T01:32:18;91071.81;;;10.63;100.00
39789;BME280;25478;42.626;23.320;2022-12-11T01:34:43;91062.53;;;10.97;100.00
39789;BME280;25478;42.626;23.320;2022-12-11T01:37:09;91040.59;;;11.13;100.00
39789;BME280;25478;42.626;23.320;2022-12-11T01:39:35;91013.22;;;11.10;100.00
39789;BME280;25478;42.626;23.320;2022-12-11T01:42:00;90977.09;;;11.11;100.00
39789;BME280;25478;42.626;23.320;2022-12-11T01:46:52;90965.81;;;11.10;100.00
39789;BME280;25478;42.626;23.320;2022-12-11T01:49:19;90991.50;;;11.06;100.00
39789;BME280;25478;42.626;23.320;2022-12-11T01:51:53;90957.72;;;11.05;100.00
39789;BME280;25478;42.626;23.320;2022-12-11T01:54:21;90948.53;;;11.09;100.00
39789;BME280;25478;42.626;23.320;2022-12-11T01:56:50;90909.28;;;11.02;100.00
39789;BME280;25478;42.626;23.320;2022-12-11T01:59:20;90963.31;;;11.28;98.15
39789;BME280;25478;42.626;23.320;2022-12-11T02:01:58;90946.69;;;11.41;94.19
39789;BME280;25478;42.626;23.320;2022-12-11T02:04:25;90945.78;;;11.35;92.51
39789;BME280;25478;42.626;23.320;2022-12-11T02:06:52;90939.41;;;11.45;89.19
39789;BME280;25478;42.626;23.320;2022-12-11T02:09:22;90909.75;;;11.53;88.87
39789;BME280;25478;42.626;23.320;2022-12-11T02:15:39;90907.22;;;11.50;89.20
39789;BME280;25478;42.626;23.320;2022-12-11T02:20:37;90875.66;;;11.28;91.79
39789;BME280;25478;42.626;23.320;2022-12-11T02:23:22;90941.03;;;11.51;92.53
39789;BME280;25478;42.626;23.320;2022-12-11T02:26:11;90926.59;;;11.56;94.85
39789;BME280;25478;42.626;23.320;2022-12-11T02:28:49;90887.25;;;11.62;95.54
39789;BME280;25478;42.626;23.320;2022-12-11T02:31:26;90869.28;;;11.69;95.54
39789;BME280;25478;42.626;23.320;2022-12-11T02:34:00;90877.41;;;11.84;95.03
39789;BME280;25478;42.626;23.320;2022-12-11T02:36:30;90881.13;;;11.96;94.07
39789;BME280;25478;42.626;23.320;2022-12-11T02:38:58;90841.41;;;11.99;91.96
39789;BME280;25478;42.626;23.320;2022-12-11T02:41:26;90893.78;;;12.19;91.75
39789;BME280;25478;42.626;23.320;2022-12-11T02:43:55;90908.59;;;12.26;89.76
39789;BME280;25478;42.626;23.320;2022-12-11T02:46:23;90904.66;;;12.30;88.41
39789;BME280;25478;42.626;23.320;2022-12-11T02:48:50;90906.41;;;12.43;87.65
39789;BME280;25478;42.626;23.320;2022-12-11T02:51:23;90931.50;;;12.47;84.88
39789;BME280;25478;42.626;23.320;2022-12-11T02:53:50;90895.47;;;12.53;81.71
39789;BME280;25478;42.626;23.320;2022-12-11T02:56:23;90887.25;;;12.60;79.81
39789;BME280;25478;42.626;23.320;2022-12-11T02:58:55;90879.19;;;12.64;79.85
39789;BME280;25478;42.626;23.320;2022-12-11T03:01:25;90844.88;;;12.55;79.17
39789;BME280;25478;42.626;23.320;2022-12-11T03:03:52;90875.09;;;12.72;78.59
39789;BME280;25478;42.626;23.320;2022-12-11T03:06:21;90844.44;;;12.65;79.87
39789;BME280;25478;42.626;23.320;2022-12-11T03:08:48;90870.53;;;12.73;80.19
39789;BME280;25478;42.626;23.320;2022-12-11T03:11:16;90874.06;;;12.79;79.76
39789;BME280;25478;42.626;23.320;2022-12-11T03:13:41;90848.53;;;12.76;79.75
39789;BME280;25478;42.626;23.320;2022-12-11T03:19:21;90899.75;;;12.96;79.29
39789;BME280;25478;42.626;23.320;2022-12-11T03:22:02;90886.25;;;13.04;77.23
39789;BME280;25478;42.626;23.320;2022-12-11T03:24:38;90900.75;;;12.99;76.12
39789;BME280;25478;42.626;23.320;2022-12-11T03:27:29;90944.19;;;13.16;76.54
39789;BME280;25478;42.626;23.320;2022-12-11T03:30:17;90992.03;;;13.18;75.55
39789;BME280;25478;42.626;23.320;2022-12-11T03:32:52;90930.09;;;13.10;74.90
39789;BME280;25478;42.626;23.320;2022-12-11T03:35:24;90956.41;;;13.23;76.10
39789;BME280;25478;42.626;23.320;2022-12-11T03:37:52;90959.03;;;13.23;76.03
39789;BME280;25478;42.626;23.320;2022-12-11T03:40:20;90994.41;;;13.26;75.19
39789;BME280;25478;42.626;23.320;2022-12-11T03:42:50;90991.63;;;13.29;73.85
39789;BME280;25478;42.626;23.320;2022-12-11T03:45:18;90993.69;;;13.34;73.58
39789;BME280;25478;42.626;23.320;2022-12-11T03:47:45;90956.69;;;13.25;72.76
39789;BME280;25478;42.626;23.320;2022-12-11T03:50:13;90992.06;;;13.37;72.54
39789;BME280;25478;42.626;23.320;2022-12-11T03:52:41;91010.41;;;13.40;70.85
39789;BME280;25478;42.626;23.320;2022-12-11T03:55:08;91007.34;;;13.42;70.74
39789;BME280;25478;42.626;23.320;2022-12-11T03:57:36;91020.53;;;13.42;70.71
39789;BME280;25478;42.626;23.320;2022-12-11T04:00:11;90995.31;;;13.32;71.13
39789;BME280;25478;42.626;23.320;2022-12-11T04:02:38;90973.13;;;13.38;72.07
39789;BME280;25478;42.626;23.320;2022-12-11T04:05:04;90972.09;;;13.27;72.27
39789;BME280;25478;42.626;23.320;2022-12-11T04:07:30;90987.94;;;13.36;72.53
39789;BME280;25478;42.626;23.320;2022-12-11T04:09:55;90997.94;;;13.32;71.55
39789;BME280;25478;42.626;23.320;2022-12-11T04:12:21;91000.44;;;13.26;70.29
39789;BME280;25478;42.626;23.320;2022-12-11T04:14:46;91008.81;;;13.34;69.45
39789;BME280;25478;42.626;23.320;2022-12-11T04:17:33;91013.34;;;13.33;67.00
39789;BME280;25478;42.626;23.320;2022-12-11T04:20:17;91020.53;;;13.23;67.75
39789;BME280;25478;42.626;23.320;2022-12-11T04:23:06;91042.69;;;13.26;69.00
39789;BME280;25478;42.626;23.320;2022-12-11T04:26:22;91041.06;;;13.19;69.29
39789;BME280;25478;42.626;23.320;2022-12-11T04:28:48;91073.41;;;13.33;69.01
39789;BME280;25478;42.626;23.320;2022-12-11T04:31:17;91051.50;;;13.23;69.21
39789;BME280;25478;42.626;23.320;2022-12-11T04:33:42;91094.09;;;13.34;70.29
39789;BME280;25478;42.626;23.320;2022-12-11T04:36:10;91099.25;;;13.29;71.26
39789;BME280;25478;42.626;23.320;2022-12-11T04:38:36;91090.22;;;13.17;72.49
39789;BME280;25478;42.626;23.320;2022-12-11T04:41:07;91112.78;;;13.09;73.28
39789;BME280;25478;42.626;23.320;2022-12-11T04:43:33;91097.66;;;13.00;74.63
39789;BME280;25478;42.626;23.320;2022-12-11T04:46:08;91126.38;;;12.89;75.36
39789;BME280;25478;42.626;23.320;2022-12-11T04:48:36;91083.66;;;12.81;72.89
39789;BME280;25478;42.626;23.320;2022-12-11T04:51:02;91113.16;;;12.80;73.39
39789;BME280;25478;42.626;23.320;2022-12-11T04:53:27;91133.53;;;12.79;73.85
39789;BME280;25478;42.626;23.320;2022-12-11T04:55:53;91135.44;;;12.79;72.04
39789;BME280;25478;42.626;23.320;2022-12-11T04:58:20;91093.38;;;12.93;70.30
39789;BME280;25478;42.626;23.320;2022-12-11T05:00:46;91127.31;;;13.04;68.79
39789;BME280;25478;42.626;23.320;2022-12-11T05:03:11;91126.19;;;13.14;68.23
39789;BME280;25478;42.626;23.320;2022-12-11T05:05:37;91138.34;;;13.12;68.18
39789;BME280;25478;42.626;23.320;2022-12-11T05:08:03;91092.66;;;13.02;67.24
39789;BME280;25478;42.626;23.320;2022-12-11T05:10:28;91115.91;;;13.16;68.00
39789;BME280;25478;42.626;23.320;2022-12-11T05:12:54;91112.09;;;13.17;68.46
39789;BME280;25478;42.626;23.320;2022-12-11T05:15:19;91118.81;;;13.09;68.51
39789;BME280;25478;42.626;23.320;2022-12-11T05:17:45;91116.91;;;13.10;68.30
39789;BME280;25478;42.626;23.320;2022-12-11T05:20:10;91109.25;;;13.03;68.68
39789;BME280;25478;42.626;23.320;2022-12-11T05:22:37;91138.31;;;13.03;68.70
39789;BME280;25478;42.626;23.320;2022-12-11T05:25:03;91122.78;;;13.05;68.27
39789;BME280;25478;42.626;23.320;2022-12-11T05:27:28;91099.84;;;12.92;68.51
39789;BME280;25478;42.626;23.320;2022-12-11T05:29:54;91132.47;;;13.08;68.38
39789;BME280;25478;42.626;23.320;2022-12-11T05:32:19;91118.78;;;13.00;68.81
39789;BME280;25478;42.626;23.320;2022-12-11T05:34:45;91109.13;;;13.06;68.77
39789;BME280;25478;42.626;23.320;2022-12-11T05:37:10;91113.81;;;13.02;69.45
39789;BME280;25478;42.626;23.320;2022-12-11T05:39:36;91099.72;;;12.96;68.42
39789;BME280;25478;42.626;23.320;2022-12-11T05:42:02;91089.63;;;13.13;67.60
39789;BME280;25478;42.626;23.320;2022-12-11T05:44:27;91090.41;;;13.22;66.64
39789;BME280;25478;42.626;23.320;2022-12-11T05:46:53;91118.75;;;13.22;67.40
39789;BME280;25478;42.626;23.320;2022-12-11T05:49:19;91054.16;;;13.23;66.86
39789;BME280;25478;42.626;23.320;2022-12-11T05:51:44;91080.44;;;13.27;66.32
39789;BME280;25478;42.626;23.320;2022-12-11T05:54:10;91044.03;;;13.31;66.75
39789;BME280;25478;42.626;23.320;2022-12-11T05:56:36;91076.94;;;13.30;66.70
39789;BME280;25478;42.626;23.320;2022-12-11T05:59:03;91071.78;;;13.35;66.42
39789;BME280;25478;42.626;23.320;2022-12-11T06:01:41;91045.66;;;13.37;65.92
39789;BME280;25478;42.626;23.320;2022-12-11T06:04:08;91063.84;;;13.35;65.85
39789;BME280;25478;42.626;23.320;2022-12-11T06:06:34;91064.47;;;13.39;65.34
39789;BME280;25478;42.626;23.320;2022-12-11T06:09:00;91070.75;;;13.42;64.85
39789;BME280;25478;42.626;23.320;2022-12-11T06:11:29;91029.81;;;13.46;64.20
39789;BME280;25478;42.626;23.320;2022-12-11T06:13:55;91035.53;;;13.54;63.83
39789;BME280;25478;42.626;23.320;2022-12-11T06:16:21;91076.34;;;13.53;64.13
39789;BME280;25478;42.626;23.320;2022-12-11T06:18:47;91073.69;;;13.53;64.31
39789;BME280;25478;42.626;23.320;2022-12-11T06:21:24;91086.91;;;13.53;63.87
39789;BME280;25478;42.626;23.320;2022-12-11T06:23:52;91112.50;;;13.56;62.72
39789;BME280;25478;42.626;23.320;2022-12-11T06:26:18;91124.97;;;13.56;63.01
39789;BME280;25478;42.626;23.320;2022-12-11T06:28:45;91109.97;;;13.52;62.51
39789;BME280;25478;42.626;23.320;2022-12-11T06:31:11;91112.19;;;13.63;62.31
39789;BME280;25478;42.626;23.320;2022-12-11T06:33:36;91117.91;;;13.62;63.11
39789;BME280;25478;42.626;23.320;2022-12-11T06:36:07;91106.31;;;13.59;62.85
39789;BME280;25478;42.626;23.320;2022-12-11T06:38:34;91123.63;;;13.51;63.18
39789;BME280;25478;42.626;23.320;2022-12-11T06:41:02;91119.25;;;13.57;63.16
39789;BME280;25478;42.626;23.320;2022-12-11T06:43:32;91124.97;;;13.56;63.96
39789;BME280;25478;42.626;23.320;2022-12-11T06:45:58;91128.75;;;13.36;64.22
39789;BME280;25478;42.626;23.320;2022-12-11T06:48:24;91136.00;;;13.54;63.98
39789;BME280;25478;42.626;23.320;2022-12-11T06:50:49;91170.94;;;13.58;64.04
39789;BME280;25478;42.626;23.320;2022-12-11T06:53:15;91084.44;;;13.68;62.93
39789;BME280;25478;42.626;23.320;2022-12-11T06:55:41;91106.03;;;13.66;63.30
39789;BME280;25478;42.626;23.320;2022-12-11T06:58:07;91121.31;;;13.62;64.00
39789;BME280;25478;42.626;23.320;2022-12-11T07:00:37;91107.78;;;13.60;64.42
39789;BME280;25478;42.626;23.320;2022-12-11T07:03:02;91095.16;;;13.55;64.73
39789;BME280;25478;42.626;23.320;2022-12-11T07:05:29;91099.28;;;13.56;64.60
39789;BME280;25478;42.626;23.320;2022-12-11T07:07:55;91113.06;;;13.69;64.82
39789;BME280;25478;42.626;23.320;2022-12-11T07:10:21;91130.41;;;13.70;64.87
39789;BME280;25478;42.626;23.320;2022-12-11T07:12:47;91122.50;;;13.79;64.27
39789;BME280;25478;42.626;23.320;2022-12-11T07:15:12;91157.28;;;13.78;64.53
39789;BME280;25478;42.626;23.320;2022-12-11T07:17:38;91126.28;;;13.78;64.46
39789;BME280;25478;42.626;23.320;2022-12-11T07:20:04;91130.56;;;13.67;64.29
39789;BME280;25478;42.626;23.320;2022-12-11T07:22:30;91143.78;;;13.85;63.57
39789;BME280;25478;42.626;23.320;2022-12-11T07:24:55;91120.44;;;13.74;63.64
39789;BME280;25478;42.626;23.320;2022-12-11T07:27:21;91168.75;;;13.84;64.23
39789;BME280;25478;42.626;23.320;2022-12-11T07:29:46;91166.00;;;13.88;64.17
39789;BME280;25478;42.626;23.320;2022-12-11T07:32:12;91144.78;;;13.69;64.28
39789;BME280;25478;42.626;23.320;2022-12-11T07:34:37;91161.56;;;13.85;64.73
39789;BME280;25478;42.626;23.320;2022-12-11T07:37:03;91192.56;;;13.84;65.43
39789;BME280;25478;42.626;23.320;2022-12-11T07:39:28;91150.84;;;13.79;65.01
39789;BME280;25478;42.626;23.320;2022-12-11T07:41:54;91162.44;;;13.72;64.75
39789;BME280;25478;42.626;23.320;2022-12-11T07:44:19;91179.06;;;13.91;64.52
39789;BME280;25478;42.626;23.320;2022-12-11T07:46:45;91135.72;;;13.79;64.15
39789;BME280;25478;42.626;23.320;2022-12-11T07:49:10;91164.66;;;13.83;63.42
39789;BME280;25478;42.626;23.320;2022-12-11T07:51:37;91171.28;;;14.06;62.77
39789;BME280;25478;42.626;23.320;2022-12-11T07:54:09;91169.81;;;14.14;63.10
39789;BME280;25478;42.626;23.320;2022-12-11T07:56:36;91167.47;;;13.98;63.25
39789;BME280;25478;42.626;23.320;2022-12-11T07:59:03;91175.97;;;14.11;62.77
39789;BME280;25478;42.626;23.320;2022-12-11T08:01:31;91164.06;;;14.16;62.17
39789;BME280;25478;42.626;23.320;2022-12-11T08:03:57;91174.94;;;14.08;62.88
39789;BME280;25478;42.626;23.320;2022-12-11T08:06:29;91198.19;;;14.23;62.74
39789;BME280;25478;42.626;23.320;2022-12-11T08:08:56;91190.53;;;14.25;62.66
39789;BME280;25478;42.626;23.320;2022-12-11T08:11:22;91176.00;;;14.29;64.04
39789;BME280;25478;42.626;23.320;2022-12-11T08:13:48;91213.16;;;14.26;65.31
39789;BME280;25478;42.626;23.320;2022-12-11T08:16:14;91195.09;;;14.24;67.24
39789;BME280;25478;42.626;23.320;2022-12-11T08:18:42;91231.97;;;14.19;67.46
39789;BME280;25478;42.626;23.320;2022-12-11T08:21:16;91218.03;;;14.27;65.95
39789;BME280;25478;42.626;23.320;2022-12-11T08:23:42;91212.72;;;14.27;66.85
39789;BME280;25478;42.626;23.320;2022-12-11T08:26:10;91221.28;;;14.22;67.10
39789;BME280;25478;42.626;23.320;2022-12-11T08:28:37;91182.31;;;14.04;66.79
39789;BME280;25478;42.626;23.320;2022-12-11T08:31:04;91197.59;;;14.19;66.53
39789;BME280;25478;42.626;23.320;2022-12-11T08:33:31;91199.50;;;14.18;68.32
39789;BME280;25478;42.626;23.320;2022-12-11T08:35:56;91185.53;;;14.08;68.30
39789;BME280;25478;42.626;23.320;2022-12-11T08:38:22;91183.03;;;14.05;69.22
39789;BME280;25478;42.626;23.320;2022-12-11T08:40:48;91184.63;;;13.93;69.96
39789;BME280;25478;42.626;23.320;2022-12-11T08:43:13;91176.13;;;13.89;70.51
39789;BME280;25478;42.626;23.320;2022-12-11T08:45:39;91175.53;;;13.94;69.61
39789;BME280;25478;42.626;23.320;2022-12-11T08:48:05;91192.88;;;13.95;69.75
39789;BME280;25478;42.626;23.320;2022-12-11T08:50:30;91207.13;;;13.89;69.44
39789;BME280;25478;42.626;23.320;2022-12-11T08:52:56;91164.63;;;13.56;69.59
39789;BME280;25478;42.626;23.320;2022-12-11T08:55:22;91205.03;;;13.74;69.91
39789;BME280;25478;42.626;23.320;2022-12-11T08:57:47;91207.69;;;13.74;70.53
39789;BME280;25478;42.626;23.320;2022-12-11T09:00:13;91148.41;;;13.35;70.58
39789;BME280;25478;42.626;23.320;2022-12-11T09:02:43;91203.16;;;13.84;71.09
39789;BME280;25478;42.626;23.320;2022-12-11T09:05:09;91199.31;;;13.85;71.52
39789;BME280;25478;42.626;23.320;2022-12-11T09:07:36;91217.13;;;14.03;72.19
39789;BME280;25478;42.626;23.320;2022-12-11T09:10:03;91205.06;;;14.11;70.94
39789;BME280;25478;42.626;23.320;2022-12-11T09:12:29;91198.19;;;14.04;70.91
39789;BME280;25478;42.626;23.320;2022-12-11T09:14:55;91178.94;;;14.22;69.77
39789;BME280;25478;42.626;23.320;2022-12-11T09:17:21;91203.03;;;14.33;68.76
39789;BME280;25478;42.626;23.320;2022-12-11T09:19:46;91162.88;;;14.26;67.27
39789;BME280;25478;42.626;23.320;2022-12-11T09:22:12;91198.34;;;14.47;67.37
39789;BME280;25478;42.626;23.320;2022-12-11T09:24:37;91179.94;;;14.43;66.81
39789;BME280;25478;42.626;23.320;2022-12-11T09:27:04;91210.97;;;14.52;66.28
39789;BME280;25478;42.626;23.320;2022-12-11T09:29:30;91203.47;;;14.41;66.89
39789;BME280;25478;42.626;23.320;2022-12-11T09:31:56;91203.34;;;14.63;65.69
39789;BME280;25478;42.626;23.320;2022-12-11T09:34:21;91190.38;;;14.65;66.00
39789;BME280;25478;42.626;23.320;2022-12-11T09:36:47;91187.13;;;14.70;65.47
39789;BME280;25478;42.626;23.320;2022-12-11T09:39:13;91195.94;;;14.76;65.43
39789;BME280;25478;42.626;23.320;2022-12-11T09:41:52;91186.69;;;14.81;63.97
39789;BME280;25478;42.626;23.320;2022-12-11T09:44:33;91201.22;;;14.85;63.81
39789;BME280;25478;42.626;23.320;2022-12-11T09:47:00;91179.75;;;14.83;65.11
39789;BME280;25478;42.626;23.320;2022-12-11T09:49:36;91191.41;;;14.68;65.88
39789;BME280;25478;42.626;23.320;2022-12-11T09:52:15;91159.66;;;14.40;66.07
39789;BME280;25478;42.626;23.320;2022-12-11T09:55:23;91159.47;;;14.44;65.65
39789;BME280;25478;42.626;23.320;2022-12-11T10:00:37;91163.63;;;14.35;66.56
39789;BME280;25478;42.626;23.320;2022-12-11T10:03:43;91175.09;;;14.42;66.06
39789;BME280;25478;42.626;23.320;2022-12-11T10:11:37;91178.19;;;14.49;68.28
39789;BME280;25478;42.626;23.320;2022-12-11T10:16:51;91167.00;;;14.36;71.88
39789;BME280;25478;42.626;23.320;2022-12-11T10:19:21;91195.84;;;14.16;73.72
39789;BME280;25478;42.626;23.320;2022-12-11T10:21:50;91166.44;;;14.04;75.31
39789;BME280;25478;42.626;23.320;2022-12-11T10:24:21;91195.22;;;13.93;77.19
39789;BME280;25478;42.626;23.320;2022-12-11T10:26:54;91164.38;;;13.90;77.86
39789;BME280;25478;42.626;23.320;2022-12-11T10:29:20;91148.94;;;13.89;76.57
39789;BME280;25478;42.626;23.320;2022-12-11T10:31:55;91179.50;;;14.17;75.56
39789;BME280;25478;42.626;23.320;2022-12-11T10:36:57;91168.75;;;14.21;75.98
39789;BME280;25478;42.626;23.320;2022-12-11T10:39:22;91176.41;;;14.19;75.93
39789;BME280;25478;42.626;23.320;2022-12-11T10:41:50;91164.22;;;14.21;75.43
39789;BME280;25478;42.626;23.320;2022-12-11T10:44:29;91166.13;;;14.30;76.04
39789;BME280;25478;42.626;23.320;2022-12-11T10:49:33;91131.56;;;14.43;74.50
39789;BME280;25478;42.626;23.320;2022-12-11T10:52:00;91125.09;;;14.25;75.65
39789;BME280;25478;42.626;23.320;2022-12-11T10:56:56;91155.22;;;14.28;74.47
39789;BME280;25478;42.626;23.320;2022-12-11T10:59:32;91108.66;;;14.03;70.44
39789;BME280;25478;42.626;23.320;2022-12-11T11:02:00;91133.78;;;14.17;70.14
39789;BME280;25478;42.626;23.320;2022-12-11T11:04:33;91133.94;;;14.22;68.00
39789;BME280;25478;42.626;23.320;2022-12-11T11:07:27;91145.72;;;14.21;69.00
39789;BME280;25478;42.626;23.320;2022-12-11T11:12:38;91149.38;;;14.15;70.97
39789;BME280;25478;42.626;23.320;2022-12-11T11:15:24;91143.19;;;14.08;73.04
39789;BME280;25478;42.626;23.320;2022-12-11T11:17:54;91124.97;;;13.92;74.42
39789;BME280;25478;42.626;23.320;2022-12-11T11:20:26;91143.66;;;14.07;74.59
39789;BME280;25478;42.626;23.320;2022-12-11T11:22:59;91126.00;;;14.04;75.98
39789;BME280;25478;42.626;23.320;2022-12-11T11:25:28;91146.88;;;14.02;76.49
39789;BME280;25478;42.626;23.320;2022-12-11T11:27:56;91144.38;;;13.98;78.79
39789;BME280;25478;42.626;23.320;2022-12-11T11:30:32;91139.38;;;14.00;80.98
39789;BME280;25478;42.626;23.320;2022-12-11T11:33:03;91126.00;;;13.95;80.02
39789;BME280;25478;42.626;23.320;2022-12-11T11:35:31;91147.16;;;13.95;80.10
39789;BME280;25478;42.626;23.320;2022-12-11T11:38:08;91156.28;;;13.85;80.66
39789;BME280;25478;42.626;23.320;2022-12-11T11:40:41;91121.59;;;13.55;82.15
39789;BME280;25478;42.626;23.320;2022-12-11T11:45:50;91122.84;;;13.23;83.24
39789;BME280;25478;42.626;23.320;2022-12-11T11:54:19;91110.41;;;12.92;86.33
39789;BME280;25478;42.626;23.320;2022-12-11T11:56:50;91116.56;;;12.89;86.28
39789;BME280;25478;42.626;23.320;2022-12-11T12:01:48;91133.22;;;12.77;87.56
39789;BME280;25478;42.626;23.320;2022-12-11T12:04:14;91113.94;;;12.58;87.94
39789;BME280;25478;42.626;23.320;2022-12-11T12:12:16;91123.91;;;12.54;90.01
39789;BME280;25478;42.626;23.320;2022-12-11T12:17:56;91111.94;;;12.40;92.43
39789;BME280;25478;42.626;23.320;2022-12-11T12:20:41;91118.03;;;12.28;91.54
39789;BME280;25478;42.626;23.320;2022-12-11T12:37:09;91123.44;;;12.03;93.64
39789;BME280;25478;42.626;23.320;2022-12-11T12:40:27;91124.28;;;12.00;94.37
39789;BME280;25478;42.626;23.320;2022-12-11T12:45:38;91125.75;;;12.01;95.95
39789;BME280;25478;42.626;23.320;2022-12-11T12:48:08;91123.19;;;11.88;96.39
39789;BME280;25478;42.626;23.320;2022-12-11T12:50:41;91128.03;;;11.42;95.29
39789;BME280;25478;42.626;23.320;2022-12-11T12:53:15;91152.13;;;11.06;95.29
39789;BME280;25478;42.626;23.320;2022-12-11T12:55:43;91140.00;;;10.45;96.74
39789;BME280;25478;42.626;23.320;2022-12-11T12:58:26;91171.09;;;10.34;97.03
39789;BME280;25478;42.626;23.320;2022-12-11T13:00:52;91181.59;;;9.92;97.08
39789;BME280;25478;42.626;23.320;2022-12-11T13:03:24;91192.22;;;9.56;96.81
39789;BME280;25478;42.626;23.320;2022-12-11T13:06:01;91205.72;;;9.09;97.58
39789;BME280;25478;42.626;23.320;2022-12-11T13:08:33;91164.63;;;8.50;97.76
39789;BME280;25478;42.626;23.320;2022-12-11T13:11:05;91199.19;;;8.45;98.44
39789;BME280;25478;42.626;23.320;2022-12-11T13:13:38;91196.72;;;8.14;98.80
39789;BME280;25478;42.626;23.320;2022-12-11T13:18:39;91212.59;;;7.64;100.00
39789;BME280;25478;42.626;23.320;2022-12-11T13:23:52;91201.22;;;7.27;100.00
39789;BME280;25478;42.626;23.320;2022-12-11T13:26:30;91226.88;;;7.13;100.00
39789;BME280;25478;42.626;23.320;2022-12-11T13:28:56;91250.91;;;7.04;100.00
39789;BME280;25478;42.626;23.320;2022-12-11T13:31:38;91260.78;;;6.93;100.00
39789;BME280;25478;42.626;23.320;2022-12-11T13:34:20;91194.09;;;6.20;100.00
39789;BME280;25478;42.626;23.320;2022-12-11T13:36:51;91226.19;;;6.20;100.00
39789;BME280;25478;42.626;23.320;2022-12-11T13:39:30;91270.56;;;6.24;100.00
39789;BME280;25478;42.626;23.320;2022-12-11T13:41:59;91277.47;;;6.07;100.00
39789;BME280;25478;42.626;23.320;2022-12-11T13:44:30;91263.44;;;5.90;100.00
39789;BME280;25478;42.626;23.320;2022-12-11T13:46:59;91283.59;;;5.86;100.00
39789;BME280;25478;42.626;23.320;2022-12-11T13:49:34;91289.59;;;5.80;100.00
39789;BME280;25478;42.626;23.320;2022-12-11T13:52:00;91290.78;;;5.72;100.00
39789;BME280;25478;42.626;23.320;2022-12-11T13:54:29;91299.31;;;5.79;100.00
39789;BME280;25478;42.626;23.320;2022-12-11T13:57:11;91316.16;;;5.75;100.00
39789;BME280;25478;42.626;23.320;2022-12-11T13:59:41;91315.06;;;5.72;100.00
39789;BME280;25478;42.626;23.320;2022-12-11T14:02:20;91321.06;;;5.65;100.00
39789;BME280;25478;42.626;23.320;2022-12-11T14:04:51;91322.59;;;5.59;100.00
39789;BME280;25478;42.626;23.320;2022-12-11T14:07:31;91339.41;;;5.55;100.00
39789;BME280;25478;42.626;23.320;2022-12-11T14:10:04;91333.88;;;5.46;100.00
39789;BME280;25478;42.626;23.320;2022-12-11T14:12:31;91336.56;;;5.35;100.00
39789;BME280;25478;42.626;23.320;2022-12-11T14:14:58;91331.41;;;5.21;100.00
39789;BME280;25478;42.626;23.320;2022-12-11T14:17:31;91351.22;;;5.15;100.00
39789;BME280;25478;42.626;23.320;2022-12-11T14:19:59;91351.22;;;5.11;100.00
39789;BME280;25478;42.626;23.320;2022-12-11T14:22:27;91306.34;;;4.75;100.00